sensor_id;sensor_type;location;lat;lon;timestamp;P1;durP1;ratioP1;P2;durP2;ratioP2
39218;SDS011;24934;52.752;6.964;2023-07-16T00:00:08;30.23;;;27.02;;
39218;SDS011;24934;52.752;6.964;2023-07-16T00:02:35;31.42;;;27.85;;
39218;SDS011;24934;52.752;6.964;2023-07-16T00:05:03;30.08;;;27.10;;
39218;SDS011;24934;52.752;6.964;2023-07-16T00:07:29;32.65;;;28.50;;
39218;SDS011;24934;52.752;6.964;2023-07-16T00:09:55;31.23;;;27.83;;
39218;SDS011;24934;52.752;6.964;2023-07-16T00:12:20;30.98;;;27.77;;
39218;SDS011;24934;52.752;6.964;2023-07-16T00:14:49;31.40;;;28.13;;
39218;SDS011;24934;52.752;6.964;2023-07-16T00:17:15;30.92;;;27.45;;
39218;SDS011;24934;52.752;6.964;2023-07-16T00:19:41;29.63;;;26.83;;
39218;SDS011;24934;52.752;6.964;2023-07-16T00:22:07;28.33;;;25.90;;
39218;SDS011;24934;52.752;6.964;2023-07-16T00:24:32;28.23;;;25.30;;
39218;SDS011;24934;52.752;6.964;2023-07-16T00:26:58;29.98;;;26.73;;
39218;SDS011;24934;52.752;6.964;2023-07-16T00:29:24;30.85;;;26.33;;
39218;SDS011;24934;52.752;6.964;2023-07-16T00:31:49;31.77;;;26.10;;
39218;SDS011;24934;52.752;6.964;2023-07-16T00:34:15;28.50;;;25.42;;
39218;SDS011;24934;52.752;6.964;2023-07-16T00:36:40;29.83;;;26.20;;
39218;SDS011;24934;52.752;6.964;2023-07-16T00:39:06;28.35;;;25.27;;
39218;SDS011;24934;52.752;6.964;2023-07-16T00:41:32;29.33;;;26.10;;
39218;SDS011;24934;52.752;6.964;2023-07-16T00:43:57;27.92;;;24.85;;
39218;SDS011;24934;52.752;6.964;2023-07-16T00:46:23;28.55;;;24.35;;
39218;SDS011;24934;52.752;6.964;2023-07-16T00:48:49;28.05;;;25.25;;
39218;SDS011;24934;52.752;6.964;2023-07-16T00:51:15;29.20;;;26.13;;
39218;SDS011;24934;52.752;6.964;2023-07-16T00:53:42;28.00;;;24.45;;
39218;SDS011;24934;52.752;6.964;2023-07-16T00:56:11;27.30;;;24.55;;
39218;SDS011;24934;52.752;6.964;2023-07-16T00:58:45;27.77;;;25.05;;
39218;SDS011;24934;52.752;6.964;2023-07-16T01:01:10;28.63;;;25.77;;
39218;SDS011;24934;52.752;6.964;2023-07-16T01:03:36;28.17;;;25.48;;
39218;SDS011;24934;52.752;6.964;2023-07-16T01:09:02;29.30;;;25.85;;
39218;SDS011;24934;52.752;6.964;2023-07-16T01:11:31;29.30;;;26.33;;
39218;SDS011;24934;52.752;6.964;2023-07-16T01:14:00;36.83;;;29.40;;
39218;SDS011;24934;52.752;6.964;2023-07-16T01:16:27;30.27;;;27.42;;
39218;SDS011;24934;52.752;6.964;2023-07-16T01:18:53;32.17;;;29.13;;
39218;SDS011;24934;52.752;6.964;2023-07-16T01:21:19;34.58;;;31.17;;
39218;SDS011;24934;52.752;6.964;2023-07-16T01:31:51;35.00;;;31.25;;
39218;SDS011;24934;52.752;6.964;2023-07-16T01:34:18;33.85;;;29.58;;
39218;SDS011;24934;52.752;6.964;2023-07-16T01:36:44;33.33;;;30.35;;
39218;SDS011;24934;52.752;6.964;2023-07-16T01:39:11;34.17;;;31.05;;
39218;SDS011;24934;52.752;6.964;2023-07-16T01:41:36;35.35;;;31.60;;
39218;SDS011;24934;52.752;6.964;2023-07-16T01:44:02;33.17;;;30.20;;
39218;SDS011;24934;52.752;6.964;2023-07-16T01:46:28;33.55;;;30.00;;
39218;SDS011;24934;52.752;6.964;2023-07-16T01:48:54;32.67;;;29.33;;
39218;SDS011;24934;52.752;6.964;2023-07-16T01:51:20;31.00;;;28.05;;
39218;SDS011;24934;52.752;6.964;2023-07-16T01:53:46;30.00;;;27.02;;
39218;SDS011;24934;52.752;6.964;2023-07-16T01:56:12;30.60;;;27.42;;
39218;SDS011;24934;52.752;6.964;2023-07-16T01:58:40;30.55;;;27.75;;
39218;SDS011;24934;52.752;6.964;2023-07-16T02:01:11;29.75;;;27.08;;
39218;SDS011;24934;52.752;6.964;2023-07-16T02:03:37;28.60;;;25.95;;
39218;SDS011;24934;52.752;6.964;2023-07-16T02:06:02;29.00;;;25.80;;
39218;SDS011;24934;52.752;6.964;2023-07-16T02:08:31;27.63;;;24.67;;
39218;SDS011;24934;52.752;6.964;2023-07-16T02:10:56;29.85;;;24.75;;
39218;SDS011;24934;52.752;6.964;2023-07-16T02:13:22;27.70;;;25.02;;
39218;SDS011;24934;52.752;6.964;2023-07-16T02:15:48;26.17;;;23.83;;
39218;SDS011;24934;52.752;6.964;2023-07-16T02:18:19;31.25;;;23.63;;
39218;SDS011;24934;52.752;6.964;2023-07-16T02:20:45;28.05;;;23.40;;
39218;SDS011;24934;52.752;6.964;2023-07-16T02:23:10;25.13;;;22.50;;
39218;SDS011;24934;52.752;6.964;2023-07-16T02:25:36;25.58;;;23.00;;
39218;SDS011;24934;52.752;6.964;2023-07-16T02:28:02;25.58;;;23.17;;
39218;SDS011;24934;52.752;6.964;2023-07-16T02:30:27;30.05;;;23.23;;
39218;SDS011;24934;52.752;6.964;2023-07-16T02:32:53;25.73;;;22.95;;
39218;SDS011;24934;52.752;6.964;2023-07-16T02:35:19;25.42;;;22.83;;
39218;SDS011;24934;52.752;6.964;2023-07-16T02:37:44;25.58;;;22.85;;
39218;SDS011;24934;52.752;6.964;2023-07-16T02:40:10;26.15;;;23.45;;
39218;SDS011;24934;52.752;6.964;2023-07-16T02:42:36;25.60;;;23.23;;
39218;SDS011;24934;52.752;6.964;2023-07-16T02:45:01;26.15;;;23.45;;
39218;SDS011;24934;52.752;6.964;2023-07-16T02:47:27;26.40;;;23.90;;
39218;SDS011;24934;52.752;6.964;2023-07-16T02:49:53;26.30;;;23.70;;
39218;SDS011;24934;52.752;6.964;2023-07-16T02:52:19;26.27;;;23.65;;
39218;SDS011;24934;52.752;6.964;2023-07-16T02:54:44;26.25;;;23.63;;
39218;SDS011;24934;52.752;6.964;2023-07-16T02:57:10;26.45;;;23.58;;
39218;SDS011;24934;52.752;6.964;2023-07-16T02:59:36;26.70;;;24.17;;
39218;SDS011;24934;52.752;6.964;2023-07-16T03:02:01;26.10;;;23.33;;
39218;SDS011;24934;52.752;6.964;2023-07-16T03:04:27;25.77;;;23.05;;
39218;SDS011;24934;52.752;6.964;2023-07-16T03:06:53;25.58;;;22.98;;
39218;SDS011;24934;52.752;6.964;2023-07-16T03:09:18;25.35;;;22.23;;
39218;SDS011;24934;52.752;6.964;2023-07-16T03:11:44;24.40;;;22.02;;
39218;SDS011;24934;52.752;6.964;2023-07-16T03:14:09;24.42;;;21.98;;
39218;SDS011;24934;52.752;6.964;2023-07-16T03:16:35;24.92;;;22.52;;
39218;SDS011;24934;52.752;6.964;2023-07-16T03:19:01;25.40;;;22.85;;
39218;SDS011;24934;52.752;6.964;2023-07-16T03:21:26;27.17;;;24.33;;
39218;SDS011;24934;52.752;6.964;2023-07-16T03:23:52;26.55;;;23.73;;
39218;SDS011;24934;52.752;6.964;2023-07-16T03:26:18;28.52;;;25.60;;
39218;SDS011;24934;52.752;6.964;2023-07-16T03:28:43;28.05;;;25.17;;
39218;SDS011;24934;52.752;6.964;2023-07-16T03:31:09;28.02;;;25.27;;
39218;SDS011;24934;52.752;6.964;2023-07-16T03:33:34;26.70;;;24.02;;
39218;SDS011;24934;52.752;6.964;2023-07-16T03:36:00;27.63;;;24.70;;
39218;SDS011;24934;52.752;6.964;2023-07-16T03:38:26;27.52;;;24.52;;
39218;SDS011;24934;52.752;6.964;2023-07-16T03:40:51;27.05;;;24.25;;
39218;SDS011;24934;52.752;6.964;2023-07-16T03:43:17;27.70;;;24.30;;
39218;SDS011;24934;52.752;6.964;2023-07-16T03:45:43;26.63;;;23.98;;
39218;SDS011;24934;52.752;6.964;2023-07-16T03:48:09;26.60;;;23.75;;
39218;SDS011;24934;52.752;6.964;2023-07-16T03:50:38;35.78;;;24.52;;
39218;SDS011;24934;52.752;6.964;2023-07-16T03:53:05;29.77;;;23.58;;
39218;SDS011;24934;52.752;6.964;2023-07-16T03:55:31;26.00;;;22.73;;
39218;SDS011;24934;52.752;6.964;2023-07-16T03:57:56;31.50;;;23.15;;
39218;SDS011;24934;52.752;6.964;2023-07-16T04:00:24;28.85;;;22.60;;
39218;SDS011;24934;52.752;6.964;2023-07-16T04:02:50;29.73;;;22.60;;
39218;SDS011;24934;52.752;6.964;2023-07-16T04:05:15;24.33;;;21.95;;
39218;SDS011;24934;52.752;6.964;2023-07-16T04:07:41;24.92;;;22.35;;
39218;SDS011;24934;52.752;6.964;2023-07-16T04:10:07;26.60;;;22.77;;
39218;SDS011;24934;52.752;6.964;2023-07-16T04:12:33;24.95;;;22.17;;
39218;SDS011;24934;52.752;6.964;2023-07-16T04:14:59;24.80;;;21.90;;
39218;SDS011;24934;52.752;6.964;2023-07-16T04:17:25;24.55;;;21.75;;
39218;SDS011;24934;52.752;6.964;2023-07-16T04:19:51;31.70;;;22.63;;
39218;SDS011;24934;52.752;6.964;2023-07-16T04:22:17;26.65;;;21.02;;
39218;SDS011;24934;52.752;6.964;2023-07-16T04:24:43;26.00;;;21.48;;
39218;SDS011;24934;52.752;6.964;2023-07-16T04:27:08;27.83;;;20.95;;
39218;SDS011;24934;52.752;6.964;2023-07-16T04:29:34;38.53;;;22.77;;
39218;SDS011;24934;52.752;6.964;2023-07-16T04:32:09;23.30;;;20.80;;
39218;SDS011;24934;52.752;6.964;2023-07-16T04:34:35;25.80;;;21.30;;
39218;SDS011;24934;52.752;6.964;2023-07-16T04:37:17;23.27;;;20.77;;
39218;SDS011;24934;52.752;6.964;2023-07-16T04:39:43;23.63;;;21.17;;
39218;SDS011;24934;52.752;6.964;2023-07-16T04:42:11;24.05;;;21.17;;
39218;SDS011;24934;52.752;6.964;2023-07-16T04:44:37;24.45;;;20.65;;
39218;SDS011;24934;52.752;6.964;2023-07-16T04:47:05;26.80;;;21.30;;
39218;SDS011;24934;52.752;6.964;2023-07-16T04:49:37;27.85;;;21.05;;
39218;SDS011;24934;52.752;6.964;2023-07-16T04:52:08;27.38;;;21.50;;
39218;SDS011;24934;52.752;6.964;2023-07-16T04:54:35;23.42;;;20.90;;
39218;SDS011;24934;52.752;6.964;2023-07-16T04:57:07;23.67;;;20.88;;
39218;SDS011;24934;52.752;6.964;2023-07-16T04:59:36;25.40;;;21.33;;
39218;SDS011;24934;52.752;6.964;2023-07-16T05:02:09;22.58;;;20.17;;
39218;SDS011;24934;52.752;6.964;2023-07-16T05:04:35;24.48;;;21.27;;
39218;SDS011;24934;52.752;6.964;2023-07-16T05:07:01;24.13;;;21.05;;
39218;SDS011;24934;52.752;6.964;2023-07-16T05:09:28;25.92;;;21.05;;
39218;SDS011;24934;52.752;6.964;2023-07-16T05:11:57;22.60;;;20.23;;
39218;SDS011;24934;52.752;6.964;2023-07-16T05:14:25;22.55;;;20.33;;
39218;SDS011;24934;52.752;6.964;2023-07-16T05:16:52;25.25;;;20.95;;
39218;SDS011;24934;52.752;6.964;2023-07-16T05:19:18;25.10;;;20.58;;
39218;SDS011;24934;52.752;6.964;2023-07-16T05:21:44;24.52;;;20.42;;
39218;SDS011;24934;52.752;6.964;2023-07-16T05:24:09;27.40;;;20.55;;
39218;SDS011;24934;52.752;6.964;2023-07-16T05:26:35;24.17;;;21.60;;
39218;SDS011;24934;52.752;6.964;2023-07-16T05:29:00;23.15;;;20.73;;
39218;SDS011;24934;52.752;6.964;2023-07-16T05:31:27;22.35;;;20.25;;
39218;SDS011;24934;52.752;6.964;2023-07-16T05:33:52;24.05;;;21.50;;
39218;SDS011;24934;52.752;6.964;2023-07-16T05:36:41;22.83;;;20.40;;
39218;SDS011;24934;52.752;6.964;2023-07-16T05:39:12;22.95;;;20.50;;
39218;SDS011;24934;52.752;6.964;2023-07-16T05:41:40;22.35;;;20.10;;
39218;SDS011;24934;52.752;6.964;2023-07-16T05:44:09;22.00;;;19.80;;
39218;SDS011;24934;52.752;6.964;2023-07-16T05:46:37;21.65;;;19.25;;
39218;SDS011;24934;52.752;6.964;2023-07-16T05:49:04;21.67;;;19.38;;
39218;SDS011;24934;52.752;6.964;2023-07-16T05:51:30;21.63;;;19.33;;
39218;SDS011;24934;52.752;6.964;2023-07-16T05:53:56;25.17;;;19.23;;
39218;SDS011;24934;52.752;6.964;2023-07-16T05:56:22;21.08;;;18.83;;
39218;SDS011;24934;52.752;6.964;2023-07-16T05:58:48;26.33;;;19.17;;
39218;SDS011;24934;52.752;6.964;2023-07-16T06:01:14;20.52;;;18.35;;
39218;SDS011;24934;52.752;6.964;2023-07-16T06:03:43;22.35;;;18.05;;
39218;SDS011;24934;52.752;6.964;2023-07-16T06:06:12;20.40;;;18.00;;
39218;SDS011;24934;52.752;6.964;2023-07-16T06:08:40;22.48;;;17.45;;
39218;SDS011;24934;52.752;6.964;2023-07-16T06:11:06;19.35;;;17.35;;
39218;SDS011;24934;52.752;6.964;2023-07-16T06:13:32;20.02;;;16.63;;
39218;SDS011;24934;52.752;6.964;2023-07-16T06:15:57;20.42;;;16.52;;
39218;SDS011;24934;52.752;6.964;2023-07-16T06:18:23;18.73;;;16.17;;
39218;SDS011;24934;52.752;6.964;2023-07-16T06:20:49;18.05;;;16.25;;
39218;SDS011;24934;52.752;6.964;2023-07-16T06:23:16;20.58;;;16.42;;
39218;SDS011;24934;52.752;6.964;2023-07-16T06:25:42;18.08;;;16.10;;
39218;SDS011;24934;52.752;6.964;2023-07-16T06:28:22;16.48;;;14.90;;
39218;SDS011;24934;52.752;6.964;2023-07-16T06:30:58;20.63;;;16.00;;
39218;SDS011;24934;52.752;6.964;2023-07-16T06:33:23;17.85;;;15.05;;
39218;SDS011;24934;52.752;6.964;2023-07-16T06:35:53;19.00;;;15.70;;
39218;SDS011;24934;52.752;6.964;2023-07-16T06:38:18;17.63;;;15.75;;
39218;SDS011;24934;52.752;6.964;2023-07-16T06:40:47;17.33;;;15.45;;
39218;SDS011;24934;52.752;6.964;2023-07-16T06:43:14;16.30;;;14.60;;
39218;SDS011;24934;52.752;6.964;2023-07-16T06:45:40;19.80;;;15.48;;
39218;SDS011;24934;52.752;6.964;2023-07-16T06:48:13;19.55;;;14.27;;
39218;SDS011;24934;52.752;6.964;2023-07-16T06:50:40;19.40;;;15.13;;
39218;SDS011;24934;52.752;6.964;2023-07-16T06:53:06;16.25;;;14.55;;
39218;SDS011;24934;52.752;6.964;2023-07-16T06:55:33;16.95;;;14.98;;
39218;SDS011;24934;52.752;6.964;2023-07-16T06:58:00;18.05;;;14.35;;
39218;SDS011;24934;52.752;6.964;2023-07-16T07:00:26;18.98;;;15.23;;
39218;SDS011;24934;52.752;6.964;2023-07-16T07:05:28;16.40;;;14.70;;
39218;SDS011;24934;52.752;6.964;2023-07-16T07:07:57;21.42;;;14.57;;
39218;SDS011;24934;52.752;6.964;2023-07-16T07:10:23;15.35;;;13.75;;
39218;SDS011;24934;52.752;6.964;2023-07-16T07:12:51;16.48;;;14.55;;
39218;SDS011;24934;52.752;6.964;2023-07-16T07:15:17;18.85;;;14.95;;
39218;SDS011;24934;52.752;6.964;2023-07-16T07:17:45;17.85;;;15.15;;
39218;SDS011;24934;52.752;6.964;2023-07-16T07:20:15;19.17;;;14.77;;
39218;SDS011;24934;52.752;6.964;2023-07-16T07:22:40;17.33;;;14.77;;
39218;SDS011;24934;52.752;6.964;2023-07-16T07:25:06;18.52;;;14.68;;
39218;SDS011;24934;52.752;6.964;2023-07-16T07:27:32;16.83;;;14.23;;
39218;SDS011;24934;52.752;6.964;2023-07-16T07:29:58;19.77;;;15.02;;
39218;SDS011;24934;52.752;6.964;2023-07-16T07:32:23;18.10;;;14.70;;
39218;SDS011;24934;52.752;6.964;2023-07-16T07:34:49;16.20;;;13.85;;
39218;SDS011;24934;52.752;6.964;2023-07-16T07:37:15;17.60;;;14.15;;
39218;SDS011;24934;52.752;6.964;2023-07-16T07:39:41;19.90;;;14.60;;
39218;SDS011;24934;52.752;6.964;2023-07-16T07:42:06;19.02;;;14.65;;
39218;SDS011;24934;52.752;6.964;2023-07-16T07:44:32;19.35;;;14.43;;
39218;SDS011;24934;52.752;6.964;2023-07-16T07:47:01;18.77;;;14.55;;
39218;SDS011;24934;52.752;6.964;2023-07-16T07:49:29;17.73;;;14.23;;
39218;SDS011;24934;52.752;6.964;2023-07-16T07:51:55;30.75;;;14.18;;
39218;SDS011;24934;52.752;6.964;2023-07-16T07:54:20;17.77;;;14.55;;
39218;SDS011;24934;52.752;6.964;2023-07-16T07:56:46;16.50;;;14.55;;
39218;SDS011;24934;52.752;6.964;2023-07-16T07:59:12;15.77;;;13.88;;
39218;SDS011;24934;52.752;6.964;2023-07-16T08:01:38;20.70;;;14.65;;
39218;SDS011;24934;52.752;6.964;2023-07-16T08:04:03;18.20;;;13.73;;
39218;SDS011;24934;52.752;6.964;2023-07-16T08:06:29;15.48;;;13.63;;
39218;SDS011;24934;52.752;6.964;2023-07-16T08:08:55;17.35;;;14.05;;
39218;SDS011;24934;52.752;6.964;2023-07-16T08:11:20;15.43;;;13.60;;
39218;SDS011;24934;52.752;6.964;2023-07-16T08:13:46;19.08;;;12.50;;
39218;SDS011;24934;52.752;6.964;2023-07-16T08:16:15;17.77;;;12.93;;
39218;SDS011;24934;52.752;6.964;2023-07-16T08:18:40;15.77;;;13.70;;
39218;SDS011;24934;52.752;6.964;2023-07-16T08:21:06;15.68;;;12.90;;
39218;SDS011;24934;52.752;6.964;2023-07-16T08:23:32;15.52;;;12.90;;
39218;SDS011;24934;52.752;6.964;2023-07-16T08:25:58;18.60;;;12.50;;
39218;SDS011;24934;52.752;6.964;2023-07-16T08:28:24;15.27;;;13.23;;
39218;SDS011;24934;52.752;6.964;2023-07-16T08:30:49;15.32;;;13.23;;
39218;SDS011;24934;52.752;6.964;2023-07-16T08:33:15;14.88;;;12.85;;
39218;SDS011;24934;52.752;6.964;2023-07-16T08:35:41;14.13;;;12.68;;
39218;SDS011;24934;52.752;6.964;2023-07-16T08:38:07;18.27;;;13.75;;
39218;SDS011;24934;52.752;6.964;2023-07-16T08:40:36;14.80;;;13.13;;
39218;SDS011;24934;52.752;6.964;2023-07-16T08:43:03;18.15;;;12.55;;
39218;SDS011;24934;52.752;6.964;2023-07-16T08:45:31;15.38;;;13.52;;
39218;SDS011;24934;52.752;6.964;2023-07-16T08:48:04;13.85;;;12.45;;
39218;SDS011;24934;52.752;6.964;2023-07-16T08:50:30;15.20;;;13.25;;
39218;SDS011;24934;52.752;6.964;2023-07-16T08:52:57;14.07;;;12.57;;
39218;SDS011;24934;52.752;6.964;2023-07-16T08:55:24;19.23;;;12.98;;
39218;SDS011;24934;52.752;6.964;2023-07-16T08:57:52;19.40;;;13.82;;
39218;SDS011;24934;52.752;6.964;2023-07-16T09:00:21;14.52;;;12.57;;
39218;SDS011;24934;52.752;6.964;2023-07-16T09:02:48;17.73;;;13.18;;
39218;SDS011;24934;52.752;6.964;2023-07-16T09:05:14;17.02;;;13.52;;
39218;SDS011;24934;52.752;6.964;2023-07-16T09:07:40;14.93;;;12.77;;
39218;SDS011;24934;52.752;6.964;2023-07-16T09:10:06;15.70;;;12.10;;
39218;SDS011;24934;52.752;6.964;2023-07-16T09:12:32;12.98;;;11.68;;
39218;SDS011;24934;52.752;6.964;2023-07-16T09:14:57;14.00;;;11.75;;
39218;SDS011;24934;52.752;6.964;2023-07-16T09:17:23;18.25;;;12.10;;
39218;SDS011;24934;52.752;6.964;2023-07-16T09:19:53;16.02;;;13.18;;
39218;SDS011;24934;52.752;6.964;2023-07-16T09:22:19;18.13;;;12.40;;
39218;SDS011;24934;52.752;6.964;2023-07-16T09:24:45;14.32;;;12.30;;
39218;SDS011;24934;52.752;6.964;2023-07-16T09:27:12;15.25;;;12.05;;
39218;SDS011;24934;52.752;6.964;2023-07-16T09:29:41;16.13;;;12.23;;
39218;SDS011;24934;52.752;6.964;2023-07-16T09:32:07;16.92;;;12.48;;
39218;SDS011;24934;52.752;6.964;2023-07-16T09:34:32;14.77;;;12.95;;
39218;SDS011;24934;52.752;6.964;2023-07-16T09:36:58;14.25;;;12.60;;
39218;SDS011;24934;52.752;6.964;2023-07-16T09:39:26;15.35;;;12.32;;
39218;SDS011;24934;52.752;6.964;2023-07-16T09:41:52;14.43;;;12.93;;
39218;SDS011;24934;52.752;6.964;2023-07-16T09:44:22;14.00;;;12.48;;
39218;SDS011;24934;52.752;6.964;2023-07-16T09:46:47;14.38;;;12.77;;
39218;SDS011;24934;52.752;6.964;2023-07-16T09:49:14;15.05;;;12.80;;
39218;SDS011;24934;52.752;6.964;2023-07-16T09:51:46;19.38;;;12.75;;
39218;SDS011;24934;52.752;6.964;2023-07-16T09:54:31;14.30;;;12.30;;
39218;SDS011;24934;52.752;6.964;2023-07-16T09:57:00;15.85;;;12.63;;
39218;SDS011;24934;52.752;6.964;2023-07-16T09:59:29;15.38;;;12.40;;
39218;SDS011;24934;52.752;6.964;2023-07-16T10:01:59;14.90;;;13.35;;
39218;SDS011;24934;52.752;6.964;2023-07-16T10:04:25;16.75;;;12.65;;
39218;SDS011;24934;52.752;6.964;2023-07-16T10:06:55;15.55;;;12.73;;
39218;SDS011;24934;52.752;6.964;2023-07-16T10:14:40;20.23;;;13.45;;
39218;SDS011;24934;52.752;6.964;2023-07-16T10:17:06;15.60;;;12.98;;
39218;SDS011;24934;52.752;6.964;2023-07-16T10:19:34;14.40;;;11.70;;
39218;SDS011;24934;52.752;6.964;2023-07-16T10:22:14;13.70;;;11.18;;
39218;SDS011;24934;52.752;6.964;2023-07-16T10:24:40;14.32;;;11.30;;
39218;SDS011;24934;52.752;6.964;2023-07-16T10:27:06;13.80;;;11.15;;
39218;SDS011;24934;52.752;6.964;2023-07-16T10:29:41;14.38;;;11.02;;
39218;SDS011;24934;52.752;6.964;2023-07-16T10:32:07;12.73;;;11.35;;
39218;SDS011;24934;52.752;6.964;2023-07-16T10:34:34;13.77;;;10.75;;
39218;SDS011;24934;52.752;6.964;2023-07-16T10:37:01;12.65;;;10.90;;
39218;SDS011;24934;52.752;6.964;2023-07-16T10:39:33;13.40;;;11.05;;
39218;SDS011;24934;52.752;6.964;2023-07-16T10:41:59;16.85;;;11.70;;
39218;SDS011;24934;52.752;6.964;2023-07-16T10:44:32;14.40;;;11.73;;
39218;SDS011;24934;52.752;6.964;2023-07-16T10:46:57;15.48;;;12.27;;
39218;SDS011;24934;52.752;6.964;2023-07-16T10:49:27;15.82;;;12.40;;
39218;SDS011;24934;52.752;6.964;2023-07-16T10:51:53;14.40;;;12.60;;
39218;SDS011;24934;52.752;6.964;2023-07-16T10:54:19;12.27;;;10.95;;
39218;SDS011;24934;52.752;6.964;2023-07-16T10:56:45;12.70;;;11.50;;
39218;SDS011;24934;52.752;6.964;2023-07-16T10:59:13;13.98;;;11.98;;
39218;SDS011;24934;52.752;6.964;2023-07-16T11:01:38;14.77;;;11.80;;
39218;SDS011;24934;52.752;6.964;2023-07-16T11:04:07;16.33;;;11.65;;
39218;SDS011;24934;52.752;6.964;2023-07-16T11:06:33;14.45;;;11.32;;
39218;SDS011;24934;52.752;6.964;2023-07-16T11:09:07;14.50;;;11.25;;
39218;SDS011;24934;52.752;6.964;2023-07-16T11:11:45;15.23;;;9.98;;
39218;SDS011;24934;52.752;6.964;2023-07-16T11:14:11;13.10;;;10.57;;
39218;SDS011;24934;52.752;6.964;2023-07-16T11:16:37;12.65;;;11.07;;
39218;SDS011;24934;52.752;6.964;2023-07-16T11:19:04;13.02;;;11.52;;
39218;SDS011;24934;52.752;6.964;2023-07-16T11:21:33;17.00;;;11.98;;
39218;SDS011;24934;52.752;6.964;2023-07-16T11:24:14;15.40;;;11.40;;
39218;SDS011;24934;52.752;6.964;2023-07-16T11:26:49;12.73;;;11.25;;
39218;SDS011;24934;52.752;6.964;2023-07-16T11:29:18;14.57;;;11.93;;
39218;SDS011;24934;52.752;6.964;2023-07-16T11:31:44;12.80;;;11.50;;
39218;SDS011;24934;52.752;6.964;2023-07-16T11:34:14;15.57;;;12.48;;
39218;SDS011;24934;52.752;6.964;2023-07-16T11:36:40;14.70;;;11.95;;
39218;SDS011;24934;52.752;6.964;2023-07-16T11:39:06;14.85;;;12.27;;
39218;SDS011;24934;52.752;6.964;2023-07-16T11:41:32;16.30;;;12.48;;
39218;SDS011;24934;52.752;6.964;2023-07-16T11:44:01;14.55;;;13.13;;
39218;SDS011;24934;52.752;6.964;2023-07-16T11:46:30;14.02;;;11.65;;
39218;SDS011;24934;52.752;6.964;2023-07-16T11:49:00;13.50;;;11.30;;
39218;SDS011;24934;52.752;6.964;2023-07-16T11:51:26;15.45;;;11.68;;
39218;SDS011;24934;52.752;6.964;2023-07-16T11:53:52;14.73;;;12.27;;
39218;SDS011;24934;52.752;6.964;2023-07-16T11:56:20;13.48;;;11.95;;
39218;SDS011;24934;52.752;6.964;2023-07-16T11:58:46;14.15;;;11.60;;
39218;SDS011;24934;52.752;6.964;2023-07-16T12:01:12;15.25;;;11.85;;
39218;SDS011;24934;52.752;6.964;2023-07-16T12:03:39;13.93;;;12.48;;
39218;SDS011;24934;52.752;6.964;2023-07-16T12:06:08;15.20;;;11.57;;
39218;SDS011;24934;52.752;6.964;2023-07-16T12:08:33;13.30;;;11.93;;
39218;SDS011;24934;52.752;6.964;2023-07-16T12:10:59;15.75;;;12.40;;
39218;SDS011;24934;52.752;6.964;2023-07-16T12:13:25;15.07;;;11.27;;
39218;SDS011;24934;52.752;6.964;2023-07-16T12:15:53;14.73;;;11.75;;
39218;SDS011;24934;52.752;6.964;2023-07-16T12:18:21;16.65;;;11.57;;
39218;SDS011;24934;52.752;6.964;2023-07-16T12:20:47;13.32;;;11.88;;
39218;SDS011;24934;52.752;6.964;2023-07-16T12:23:13;13.13;;;11.90;;
39218;SDS011;24934;52.752;6.964;2023-07-16T12:25:38;13.95;;;11.93;;
39218;SDS011;24934;52.752;6.964;2023-07-16T12:28:08;15.80;;;11.27;;
39218;SDS011;24934;52.752;6.964;2023-07-16T12:30:34;14.88;;;11.00;;
39218;SDS011;24934;52.752;6.964;2023-07-16T12:33:05;14.05;;;11.13;;
39218;SDS011;24934;52.752;6.964;2023-07-16T12:35:30;13.80;;;11.68;;
39218;SDS011;24934;52.752;6.964;2023-07-16T12:37:59;14.48;;;12.27;;
39218;SDS011;24934;52.752;6.964;2023-07-16T12:40:35;17.23;;;12.40;;
39218;SDS011;24934;52.752;6.964;2023-07-16T12:43:10;14.30;;;12.80;;
39218;SDS011;24934;52.752;6.964;2023-07-16T12:45:36;13.07;;;11.63;;
39218;SDS011;24934;52.752;6.964;2023-07-16T12:48:07;16.35;;;11.95;;
39218;SDS011;24934;52.752;6.964;2023-07-16T12:50:37;15.13;;;12.50;;
39218;SDS011;24934;52.752;6.964;2023-07-16T12:53:05;14.38;;;12.45;;
39218;SDS011;24934;52.752;6.964;2023-07-16T12:55:33;11.48;;;10.25;;
39218;SDS011;24934;52.752;6.964;2023-07-16T12:58:01;13.23;;;10.98;;
39218;SDS011;24934;52.752;6.964;2023-07-16T13:00:27;12.73;;;10.95;;
39218;SDS011;24934;52.752;6.964;2023-07-16T13:03:03;13.82;;;11.70;;
39218;SDS011;24934;52.752;6.964;2023-07-16T13:05:41;13.45;;;11.38;;
39218;SDS011;24934;52.752;6.964;2023-07-16T13:08:10;15.27;;;12.13;;
39218;SDS011;24934;52.752;6.964;2023-07-16T13:10:39;12.70;;;11.40;;
39218;SDS011;24934;52.752;6.964;2023-07-16T13:13:05;11.93;;;10.68;;
39218;SDS011;24934;52.752;6.964;2023-07-16T13:15:34;13.40;;;10.75;;
39218;SDS011;24934;52.752;6.964;2023-07-16T13:18:00;12.18;;;10.45;;
39218;SDS011;24934;52.752;6.964;2023-07-16T13:20:29;13.93;;;10.93;;
39218;SDS011;24934;52.752;6.964;2023-07-16T13:22:55;11.02;;;9.88;;
39218;SDS011;24934;52.752;6.964;2023-07-16T13:25:24;14.75;;;10.00;;
39218;SDS011;24934;52.752;6.964;2023-07-16T13:27:50;10.95;;;9.85;;
39218;SDS011;24934;52.752;6.964;2023-07-16T13:30:18;12.27;;;10.43;;
39218;SDS011;24934;52.752;6.964;2023-07-16T13:32:44;13.65;;;10.30;;
39218;SDS011;24934;52.752;6.964;2023-07-16T13:35:12;14.02;;;11.98;;
39218;SDS011;24934;52.752;6.964;2023-07-16T13:37:38;14.23;;;11.70;;
39218;SDS011;24934;52.752;6.964;2023-07-16T13:40:06;12.10;;;9.48;;
39218;SDS011;24934;52.752;6.964;2023-07-16T13:42:32;13.57;;;10.90;;
39218;SDS011;24934;52.752;6.964;2023-07-16T13:45:00;14.40;;;10.30;;
39218;SDS011;24934;52.752;6.964;2023-07-16T13:47:26;11.18;;;9.18;;
39218;SDS011;24934;52.752;6.964;2023-07-16T13:49:57;12.30;;;10.70;;
39218;SDS011;24934;52.752;6.964;2023-07-16T13:52:26;14.75;;;10.75;;
39218;SDS011;24934;52.752;6.964;2023-07-16T13:54:57;14.07;;;11.40;;
39218;SDS011;24934;52.752;6.964;2023-07-16T13:57:23;17.40;;;13.05;;
39218;SDS011;24934;52.752;6.964;2023-07-16T13:59:49;18.85;;;11.95;;
39218;SDS011;24934;52.752;6.964;2023-07-16T14:02:18;13.07;;;11.23;;
39218;SDS011;24934;52.752;6.964;2023-07-16T14:04:44;15.00;;;12.07;;
39218;SDS011;24934;52.752;6.964;2023-07-16T14:07:12;14.27;;;11.43;;
39218;SDS011;24934;52.752;6.964;2023-07-16T14:09:38;12.95;;;10.85;;
39218;SDS011;24934;52.752;6.964;2023-07-16T14:12:04;13.45;;;10.48;;
39218;SDS011;24934;52.752;6.964;2023-07-16T14:14:30;12.95;;;10.55;;
39218;SDS011;24934;52.752;6.964;2023-07-16T14:16:55;13.73;;;11.10;;
39218;SDS011;24934;52.752;6.964;2023-07-16T14:19:21;13.63;;;9.90;;
39218;SDS011;24934;52.752;6.964;2023-07-16T14:21:47;13.68;;;12.25;;
39218;SDS011;24934;52.752;6.964;2023-07-16T14:24:12;12.82;;;10.30;;
39218;SDS011;24934;52.752;6.964;2023-07-16T14:26:38;16.55;;;10.13;;
39218;SDS011;24934;52.752;6.964;2023-07-16T14:29:07;12.18;;;10.32;;
39218;SDS011;24934;52.752;6.964;2023-07-16T14:31:38;13.40;;;10.95;;
39218;SDS011;24934;52.752;6.964;2023-07-16T14:34:04;11.73;;;10.35;;
39218;SDS011;24934;52.752;6.964;2023-07-16T14:36:34;15.30;;;12.00;;
39218;SDS011;24934;52.752;6.964;2023-07-16T14:39:02;12.57;;;11.38;;